sensor_id;sensor_type;location;lat;lon;timestamp;P1;durP1;ratioP1;P2;durP2;ratioP2
22334;SDS011;11335;43.848;25.958;2023-04-06T00:01:26;22.38;;;15.05;;
22334;SDS011;11335;43.848;25.958;2023-04-06T00:04:12;21.73;;;14.75;;
22334;SDS011;11335;43.848;25.958;2023-04-06T00:06:57;21.80;;;14.73;;
22334;SDS011;11335;43.848;25.958;2023-04-06T00:09:43;24.40;;;15.40;;
22334;SDS011;11335;43.848;25.958;2023-04-06T00:12:29;24.05;;;15.43;;
22334;SDS011;11335;43.848;25.958;2023-04-06T00:15:14;24.05;;;15.52;;
22334;SDS011;11335;43.848;25.958;2023-04-06T00:18:00;23.30;;;15.13;;
22334;SDS011;11335;43.848;25.958;2023-04-06T00:20:46;25.42;;;16.10;;
22334;SDS011;11335;43.848;25.958;2023-04-06T00:23:31;22.35;;;14.95;;
22334;SDS011;11335;43.848;25.958;2023-04-06T00:26:17;25.38;;;15.73;;
22334;SDS011;11335;43.848;25.958;2023-04-06T00:29:03;22.90;;;14.57;;
22334;SDS011;11335;43.848;25.958;2023-04-06T00:31:48;22.58;;;15.15;;
22334;SDS011;11335;43.848;25.958;2023-04-06T00:34:34;24.33;;;15.85;;
22334;SDS011;11335;43.848;25.958;2023-04-06T00:37:19;25.52;;;17.00;;
22334;SDS011;11335;43.848;25.958;2023-04-06T00:40:05;23.13;;;15.65;;
22334;SDS011;11335;43.848;25.958;2023-04-06T00:42:51;24.65;;;15.48;;
22334;SDS011;11335;43.848;25.958;2023-04-06T00:45:40;23.48;;;15.55;;
22334;SDS011;11335;43.848;25.958;2023-04-06T00:48:26;22.60;;;15.00;;
22334;SDS011;11335;43.848;25.958;2023-04-06T00:51:11;24.45;;;15.75;;
22334;SDS011;11335;43.848;25.958;2023-04-06T00:53:57;23.13;;;14.93;;
22334;SDS011;11335;43.848;25.958;2023-04-06T00:56:42;22.92;;;14.80;;
22334;SDS011;11335;43.848;25.958;2023-04-06T00:59:29;22.58;;;14.73;;
22334;SDS011;11335;43.848;25.958;2023-04-06T01:02:15;21.80;;;15.40;;
22334;SDS011;11335;43.848;25.958;2023-04-06T01:05:01;22.45;;;15.10;;
22334;SDS011;11335;43.848;25.958;2023-04-06T01:07:46;21.73;;;14.85;;
22334;SDS011;11335;43.848;25.958;2023-04-06T01:10:32;23.98;;;15.35;;
22334;SDS011;11335;43.848;25.958;2023-04-06T01:13:18;24.85;;;14.50;;
22334;SDS011;11335;43.848;25.958;2023-04-06T01:16:03;21.40;;;14.50;;
22334;SDS011;11335;43.848;25.958;2023-04-06T01:18:49;20.42;;;13.98;;
22334;SDS011;11335;43.848;25.958;2023-04-06T01:21:36;23.60;;;15.00;;
22334;SDS011;11335;43.848;25.958;2023-04-06T01:24:22;21.90;;;14.18;;
22334;SDS011;11335;43.848;25.958;2023-04-06T01:27:07;21.23;;;14.18;;
22334;SDS011;11335;43.848;25.958;2023-04-06T01:29:53;21.40;;;14.10;;
22334;SDS011;11335;43.848;25.958;2023-04-06T01:32:38;22.15;;;14.43;;
22334;SDS011;11335;43.848;25.958;2023-04-06T01:35:25;21.00;;;14.05;;
22334;SDS011;11335;43.848;25.958;2023-04-06T01:38:11;22.20;;;14.43;;
22334;SDS011;11335;43.848;25.958;2023-04-06T01:40:57;20.63;;;13.95;;
22334;SDS011;11335;43.848;25.958;2023-04-06T01:43:43;22.48;;;14.13;;
22334;SDS011;11335;43.848;25.958;2023-04-06T01:46:29;21.95;;;13.38;;
22334;SDS011;11335;43.848;25.958;2023-04-06T01:49:14;20.80;;;13.45;;
22334;SDS011;11335;43.848;25.958;2023-04-06T01:52:00;20.80;;;13.55;;
22334;SDS011;11335;43.848;25.958;2023-04-06T01:54:45;20.50;;;14.25;;
22334;SDS011;11335;43.848;25.958;2023-04-06T01:57:31;20.77;;;14.27;;
22334;SDS011;11335;43.848;25.958;2023-04-06T02:00:17;23.30;;;14.77;;
22334;SDS011;11335;43.848;25.958;2023-04-06T02:03:02;24.65;;;15.15;;
22334;SDS011;11335;43.848;25.958;2023-04-06T02:05:48;23.10;;;14.98;;
22334;SDS011;11335;43.848;25.958;2023-04-06T02:08:34;29.35;;;15.15;;
22334;SDS011;11335;43.848;25.958;2023-04-06T02:11:20;33.78;;;17.02;;
22334;SDS011;11335;43.848;25.958;2023-04-06T02:14:05;27.15;;;17.10;;
22334;SDS011;11335;43.848;25.958;2023-04-06T02:16:51;23.10;;;16.05;;
22334;SDS011;11335;43.848;25.958;2023-04-06T02:19:37;23.85;;;15.52;;
22334;SDS011;11335;43.848;25.958;2023-04-06T02:22:22;25.45;;;15.27;;
22334;SDS011;11335;43.848;25.958;2023-04-06T02:25:08;24.08;;;15.20;;
22334;SDS011;11335;43.848;25.958;2023-04-06T02:27:54;21.63;;;14.68;;
22334;SDS011;11335;43.848;25.958;2023-04-06T02:30:40;22.27;;;14.95;;
22334;SDS011;11335;43.848;25.958;2023-04-06T02:33:25;25.25;;;14.32;;
22334;SDS011;11335;43.848;25.958;2023-04-06T02:36:11;22.35;;;13.82;;
22334;SDS011;11335;43.848;25.958;2023-04-06T02:38:57;21.42;;;14.50;;
22334;SDS011;11335;43.848;25.958;2023-04-06T02:41:42;21.33;;;13.95;;
22334;SDS011;11335;43.848;25.958;2023-04-06T02:44:29;21.17;;;14.25;;
22334;SDS011;11335;43.848;25.958;2023-04-06T02:47:14;19.67;;;13.50;;
22334;SDS011;11335;43.848;25.958;2023-04-06T02:50:00;24.48;;;15.45;;
22334;SDS011;11335;43.848;25.958;2023-04-06T02:52:46;18.75;;;13.40;;
22334;SDS011;11335;43.848;25.958;2023-04-06T02:55:32;21.52;;;14.88;;
22334;SDS011;11335;43.848;25.958;2023-04-06T02:58:18;19.75;;;13.70;;
22334;SDS011;11335;43.848;25.958;2023-04-06T03:01:03;18.60;;;13.30;;
22334;SDS011;11335;43.848;25.958;2023-04-06T03:03:49;22.08;;;13.43;;
22334;SDS011;11335;43.848;25.958;2023-04-06T03:06:35;21.75;;;13.60;;
22334;SDS011;11335;43.848;25.958;2023-04-06T03:09:20;21.45;;;13.65;;
22334;SDS011;11335;43.848;25.958;2023-04-06T03:12:06;21.48;;;13.45;;
22334;SDS011;11335;43.848;25.958;2023-04-06T03:14:52;20.63;;;13.70;;
22334;SDS011;11335;43.848;25.958;2023-04-06T03:17:38;18.65;;;12.68;;
22334;SDS011;11335;43.848;25.958;2023-04-06T03:20:24;18.75;;;12.63;;
22334;SDS011;11335;43.848;25.958;2023-04-06T03:23:10;22.10;;;14.55;;
22334;SDS011;11335;43.848;25.958;2023-04-06T03:25:56;21.27;;;14.25;;
22334;SDS011;11335;43.848;25.958;2023-04-06T03:28:41;20.27;;;13.93;;
22334;SDS011;11335;43.848;25.958;2023-04-06T03:31:27;18.85;;;13.43;;
22334;SDS011;11335;43.848;25.958;2023-04-06T03:34:12;22.50;;;13.88;;
22334;SDS011;11335;43.848;25.958;2023-04-06T03:36:58;20.02;;;13.35;;
22334;SDS011;11335;43.848;25.958;2023-04-06T03:39:43;20.73;;;13.30;;
22334;SDS011;11335;43.848;25.958;2023-04-06T03:42:29;22.30;;;14.68;;
22334;SDS011;11335;43.848;25.958;2023-04-06T03:45:16;23.75;;;14.45;;
22334;SDS011;11335;43.848;25.958;2023-04-06T03:48:02;21.33;;;14.52;;
22334;SDS011;11335;43.848;25.958;2023-04-06T03:50:47;23.15;;;14.77;;
22334;SDS011;11335;43.848;25.958;2023-04-06T03:53:33;21.08;;;14.45;;
22334;SDS011;11335;43.848;25.958;2023-04-06T03:56:18;22.20;;;14.18;;
22334;SDS011;11335;43.848;25.958;2023-04-06T03:59:05;22.75;;;15.32;;
22334;SDS011;11335;43.848;25.958;2023-04-06T04:01:51;23.40;;;14.45;;
22334;SDS011;11335;43.848;25.958;2023-04-06T04:04:36;22.52;;;15.13;;
22334;SDS011;11335;43.848;25.958;2023-04-06T04:07:22;22.80;;;15.20;;
22334;SDS011;11335;43.848;25.958;2023-04-06T04:10:07;24.88;;;15.48;;
22334;SDS011;11335;43.848;25.958;2023-04-06T04:12:53;25.35;;;15.25;;
22334;SDS011;11335;43.848;25.958;2023-04-06T04:15:39;24.73;;;15.27;;
22334;SDS011;11335;43.848;25.958;2023-04-06T04:18:25;23.58;;;15.45;;
22334;SDS011;11335;43.848;25.958;2023-04-06T04:21:10;22.73;;;15.35;;
22334;SDS011;11335;43.848;25.958;2023-04-06T04:23:56;24.25;;;15.65;;
22334;SDS011;11335;43.848;25.958;2023-04-06T04:26:41;27.08;;;15.88;;
22334;SDS011;11335;43.848;25.958;2023-04-06T04:29:27;24.10;;;15.80;;
22334;SDS011;11335;43.848;25.958;2023-04-06T04:32:13;26.98;;;16.08;;
22334;SDS011;11335;43.848;25.958;2023-04-06T04:34:58;23.73;;;15.30;;
22334;SDS011;11335;43.848;25.958;2023-04-06T04:37:44;28.02;;;15.63;;
22334;SDS011;11335;43.848;25.958;2023-04-06T04:40:29;25.83;;;16.73;;
22334;SDS011;11335;43.848;25.958;2023-04-06T04:43:15;27.13;;;15.93;;
22334;SDS011;11335;43.848;25.958;2023-04-06T04:46:01;26.42;;;17.23;;
22334;SDS011;11335;43.848;25.958;2023-04-06T04:48:46;25.67;;;16.48;;
22334;SDS011;11335;43.848;25.958;2023-04-06T04:51:32;23.88;;;16.42;;
22334;SDS011;11335;43.848;25.958;2023-04-06T04:54:19;30.77;;;18.17;;
22334;SDS011;11335;43.848;25.958;2023-04-06T04:57:04;27.30;;;17.55;;
22334;SDS011;11335;43.848;25.958;2023-04-06T04:59:50;28.52;;;17.08;;
22334;SDS011;11335;43.848;25.958;2023-04-06T05:02:36;23.67;;;16.30;;
22334;SDS011;11335;43.848;25.958;2023-04-06T05:05:21;26.98;;;17.10;;
22334;SDS011;11335;43.848;25.958;2023-04-06T05:08:07;25.48;;;16.48;;
22334;SDS011;11335;43.848;25.958;2023-04-06T05:10:53;29.85;;;16.58;;
22334;SDS011;11335;43.848;25.958;2023-04-06T05:13:38;30.00;;;16.58;;
22334;SDS011;11335;43.848;25.958;2023-04-06T05:16:24;26.30;;;16.88;;
22334;SDS011;11335;43.848;25.958;2023-04-06T05:19:15;23.77;;;15.57;;
22334;SDS011;11335;43.848;25.958;2023-04-06T05:22:01;26.88;;;16.75;;
22334;SDS011;11335;43.848;25.958;2023-04-06T05:24:47;25.48;;;15.82;;
22334;SDS011;11335;43.848;25.958;2023-04-06T05:27:32;27.90;;;16.42;;
22334;SDS011;11335;43.848;25.958;2023-04-06T05:30:18;23.70;;;16.17;;
22334;SDS011;11335;43.848;25.958;2023-04-06T05:33:03;25.25;;;15.90;;
22334;SDS011;11335;43.848;25.958;2023-04-06T05:35:49;26.05;;;16.08;;
22334;SDS011;11335;43.848;25.958;2023-04-06T05:38:35;29.00;;;15.25;;
22334;SDS011;11335;43.848;25.958;2023-04-06T05:41:21;24.75;;;16.48;;
22334;SDS011;11335;43.848;25.958;2023-04-06T05:44:06;26.40;;;16.13;;
22334;SDS011;11335;43.848;25.958;2023-04-06T05:46:52;25.90;;;16.38;;
22334;SDS011;11335;43.848;25.958;2023-04-06T05:49:38;26.90;;;16.42;;
22334;SDS011;11335;43.848;25.958;2023-04-06T05:52:23;24.77;;;15.65;;
22334;SDS011;11335;43.848;25.958;2023-04-06T05:55:09;24.30;;;15.25;;
22334;SDS011;11335;43.848;25.958;2023-04-06T05:57:56;28.73;;;15.95;;
22334;SDS011;11335;43.848;25.958;2023-04-06T06:00:41;26.30;;;15.63;;
22334;SDS011;11335;43.848;25.958;2023-04-06T06:03:28;26.58;;;15.90;;
22334;SDS011;11335;43.848;25.958;2023-04-06T06:06:13;24.23;;;15.85;;
22334;SDS011;11335;43.848;25.958;2023-04-06T06:08:59;29.45;;;16.55;;
22334;SDS011;11335;43.848;25.958;2023-04-06T06:11:46;26.02;;;15.85;;
22334;SDS011;11335;43.848;25.958;2023-04-06T06:14:32;25.90;;;15.88;;
22334;SDS011;11335;43.848;25.958;2023-04-06T06:17:17;28.45;;;15.98;;
22334;SDS011;11335;43.848;25.958;2023-04-06T06:20:03;30.40;;;17.23;;
22334;SDS011;11335;43.848;25.958;2023-04-06T06:22:49;28.30;;;16.55;;
22334;SDS011;11335;43.848;25.958;2023-04-06T06:25:34;32.53;;;17.58;;
22334;SDS011;11335;43.848;25.958;2023-04-06T06:28:20;27.17;;;16.30;;
22334;SDS011;11335;43.848;25.958;2023-04-06T06:31:06;25.30;;;15.70;;
22334;SDS011;11335;43.848;25.958;2023-04-06T06:33:52;26.20;;;16.70;;
22334;SDS011;11335;43.848;25.958;2023-04-06T06:36:38;27.05;;;17.55;;
22334;SDS011;11335;43.848;25.958;2023-04-06T06:39:23;27.98;;;16.88;;
22334;SDS011;11335;43.848;25.958;2023-04-06T06:42:10;26.80;;;16.17;;
22334;SDS011;11335;43.848;25.958;2023-04-06T06:44:55;29.30;;;18.10;;
22334;SDS011;11335;43.848;25.958;2023-04-06T06:47:41;26.58;;;17.58;;
22334;SDS011;11335;43.848;25.958;2023-04-06T06:50:27;28.00;;;16.48;;
22334;SDS011;11335;43.848;25.958;2023-04-06T06:53:12;27.92;;;17.45;;
22334;SDS011;11335;43.848;25.958;2023-04-06T06:55:58;27.13;;;17.05;;
22334;SDS011;11335;43.848;25.958;2023-04-06T06:58:43;29.52;;;16.10;;
22334;SDS011;11335;43.848;25.958;2023-04-06T07:01:29;26.65;;;16.45;;
22334;SDS011;11335;43.848;25.958;2023-04-06T07:04:15;26.80;;;16.90;;
22334;SDS011;11335;43.848;25.958;2023-04-06T07:07:00;28.70;;;16.95;;
22334;SDS011;11335;43.848;25.958;2023-04-06T07:09:46;28.25;;;15.57;;
22334;SDS011;11335;43.848;25.958;2023-04-06T07:12:32;25.92;;;15.73;;
22334;SDS011;11335;43.848;25.958;2023-04-06T07:15:17;24.80;;;15.68;;
22334;SDS011;11335;43.848;25.958;2023-04-06T07:18:03;22.58;;;14.40;;
22334;SDS011;11335;43.848;25.958;2023-04-06T07:20:49;22.83;;;15.13;;
22334;SDS011;11335;43.848;25.958;2023-04-06T07:23:34;25.30;;;15.65;;
22334;SDS011;11335;43.848;25.958;2023-04-06T07:26:20;22.02;;;14.90;;
22334;SDS011;11335;43.848;25.958;2023-04-06T07:29:06;23.40;;;14.40;;
22334;SDS011;11335;43.848;25.958;2023-04-06T07:31:51;22.83;;;14.90;;
22334;SDS011;11335;43.848;25.958;2023-04-06T07:34:37;27.55;;;15.85;;
22334;SDS011;11335;43.848;25.958;2023-04-06T07:37:23;23.65;;;15.73;;
22334;SDS011;11335;43.848;25.958;2023-04-06T07:40:08;25.83;;;15.23;;
22334;SDS011;11335;43.848;25.958;2023-04-06T07:42:54;24.35;;;15.52;;
22334;SDS011;11335;43.848;25.958;2023-04-06T07:45:40;24.02;;;15.20;;
22334;SDS011;11335;43.848;25.958;2023-04-06T07:48:25;26.92;;;15.50;;
22334;SDS011;11335;43.848;25.958;2023-04-06T07:51:11;22.60;;;14.98;;
22334;SDS011;11335;43.848;25.958;2023-04-06T07:53:59;24.27;;;14.60;;
22334;SDS011;11335;43.848;25.958;2023-04-06T07:56:45;22.15;;;14.30;;
22334;SDS011;11335;43.848;25.958;2023-04-06T07:59:30;22.67;;;14.23;;
22334;SDS011;11335;43.848;25.958;2023-04-06T08:02:16;20.00;;;13.98;;
22334;SDS011;11335;43.848;25.958;2023-04-06T08:05:02;24.77;;;15.82;;
22334;SDS011;11335;43.848;25.958;2023-04-06T08:07:47;21.67;;;14.98;;
22334;SDS011;11335;43.848;25.958;2023-04-06T08:10:33;23.88;;;14.52;;
22334;SDS011;11335;43.848;25.958;2023-04-06T08:13:19;24.80;;;15.30;;
22334;SDS011;11335;43.848;25.958;2023-04-06T08:16:05;26.25;;;15.02;;
22334;SDS011;11335;43.848;25.958;2023-04-06T08:18:51;22.98;;;15.07;;
22334;SDS011;11335;43.848;25.958;2023-04-06T08:21:37;23.48;;;14.07;;
22334;SDS011;11335;43.848;25.958;2023-04-06T08:24:23;22.38;;;14.52;;
22334;SDS011;11335;43.848;25.958;2023-04-06T08:27:09;26.65;;;14.93;;
22334;SDS011;11335;43.848;25.958;2023-04-06T08:29:54;22.38;;;15.02;;
22334;SDS011;11335;43.848;25.958;2023-04-06T08:32:40;23.77;;;14.88;;
22334;SDS011;11335;43.848;25.958;2023-04-06T08:35:29;22.60;;;14.30;;
22334;SDS011;11335;43.848;25.958;2023-04-06T08:38:15;22.38;;;15.18;;
22334;SDS011;11335;43.848;25.958;2023-04-06T08:41:06;37.20;;;16.10;;
22334;SDS011;11335;43.848;25.958;2023-04-06T08:43:58;24.13;;;14.93;;
22334;SDS011;11335;43.848;25.958;2023-04-06T08:46:44;21.30;;;14.18;;
22334;SDS011;11335;43.848;25.958;2023-04-06T08:49:30;27.27;;;15.40;;
22334;SDS011;11335;43.848;25.958;2023-04-06T08:52:17;21.30;;;14.05;;
22334;SDS011;11335;43.848;25.958;2023-04-06T08:55:03;21.58;;;14.63;;
22334;SDS011;11335;43.848;25.958;2023-04-06T08:57:49;23.25;;;14.68;;
22334;SDS011;11335;43.848;25.958;2023-04-06T09:00:37;22.13;;;14.90;;
22334;SDS011;11335;43.848;25.958;2023-04-06T09:03:23;23.02;;;15.23;;
22334;SDS011;11335;43.848;25.958;2023-04-06T09:06:09;23.42;;;14.45;;
22334;SDS011;11335;43.848;25.958;2023-04-06T09:08:55;21.70;;;14.68;;
22334;SDS011;11335;43.848;25.958;2023-04-06T09:11:42;19.85;;;14.02;;
22334;SDS011;11335;43.848;25.958;2023-04-06T09:14:34;22.77;;;15.48;;
22334;SDS011;11335;43.848;25.958;2023-04-06T09:17:30;23.55;;;14.65;;
22334;SDS011;11335;43.848;25.958;2023-04-06T09:20:21;21.55;;;15.15;;
22334;SDS011;11335;43.848;25.958;2023-04-06T09:23:16;23.95;;;15.60;;
22334;SDS011;11335;43.848;25.958;2023-04-06T09:28:54;23.90;;;14.75;;
22334;SDS011;11335;43.848;25.958;2023-04-06T09:31:40;20.67;;;14.52;;
22334;SDS011;11335;43.848;25.958;2023-04-06T09:34:25;25.85;;;15.68;;
22334;SDS011;11335;43.848;25.958;2023-04-06T09:37:12;21.52;;;14.52;;
22334;SDS011;11335;43.848;25.958;2023-04-06T09:40:04;21.60;;;14.38;;
22334;SDS011;11335;43.848;25.958;2023-04-06T09:42:50;22.02;;;15.27;;
22334;SDS011;11335;43.848;25.958;2023-04-06T09:45:38;25.85;;;14.63;;
22334;SDS011;11335;43.848;25.958;2023-04-06T09:48:24;21.05;;;14.32;;
22334;SDS011;11335;43.848;25.958;2023-04-06T09:51:10;25.70;;;15.73;;
22334;SDS011;11335;43.848;25.958;2023-04-06T09:53:58;18.80;;;14.10;;
22334;SDS011;11335;43.848;25.958;2023-04-06T09:56:54;21.75;;;14.10;;
22334;SDS011;11335;43.848;25.958;2023-04-06T09:59:50;20.17;;;14.73;;
22334;SDS011;11335;43.848;25.958;2023-04-06T10:08:11;22.50;;;14.57;;
22334;SDS011;11335;43.848;25.958;2023-04-06T10:10:57;21.02;;;14.48;;
22334;SDS011;11335;43.848;25.958;2023-04-06T10:13:43;21.40;;;14.50;;
22334;SDS011;11335;43.848;25.958;2023-04-06T10:16:29;19.92;;;13.38;;
22334;SDS011;11335;43.848;25.958;2023-04-06T10:19:21;21.35;;;14.23;;
22334;SDS011;11335;43.848;25.958;2023-04-06T10:22:08;20.92;;;13.60;;
22334;SDS011;11335;43.848;25.958;2023-04-06T10:24:56;22.80;;;14.80;;
22334;SDS011;11335;43.848;25.958;2023-04-06T10:27:41;19.27;;;13.40;;
22334;SDS011;11335;43.848;25.958;2023-04-06T10:30:27;22.20;;;13.88;;
22334;SDS011;11335;43.848;25.958;2023-04-06T10:33:17;19.83;;;13.40;;
22334;SDS011;11335;43.848;25.958;2023-04-06T10:36:12;23.17;;;14.57;;
22334;SDS011;11335;43.848;25.958;2023-04-06T10:38:59;17.20;;;13.25;;
22334;SDS011;11335;43.848;25.958;2023-04-06T10:41:45;24.80;;;13.35;;
22334;SDS011;11335;43.848;25.958;2023-04-06T10:44:33;18.10;;;13.10;;
22334;SDS011;11335;43.848;25.958;2023-04-06T10:47:27;20.20;;;13.73;;
22334;SDS011;11335;43.848;25.958;2023-04-06T10:50:14;20.33;;;13.13;;
22334;SDS011;11335;43.848;25.958;2023-04-06T10:53:01;19.45;;;12.30;;
22334;SDS011;11335;43.848;25.958;2023-04-06T10:55:47;17.95;;;12.80;;
22334;SDS011;11335;43.848;25.958;2023-04-06T10:58:33;19.58;;;12.82;;
22334;SDS011;11335;43.848;25.958;2023-04-06T11:01:19;20.38;;;13.57;;
22334;SDS011;11335;43.848;25.958;2023-04-06T11:04:05;18.80;;;13.35;;
22334;SDS011;11335;43.848;25.958;2023-04-06T11:06:53;19.35;;;12.63;;
22334;SDS011;11335;43.848;25.958;2023-04-06T11:09:40;20.77;;;13.40;;
22334;SDS011;11335;43.848;25.958;2023-04-06T11:12:26;21.42;;;12.82;;
22334;SDS011;11335;43.848;25.958;2023-04-06T11:15:13;17.90;;;12.23;;
22334;SDS011;11335;43.848;25.958;2023-04-06T11:17:58;22.13;;;13.65;;
22334;SDS011;11335;43.848;25.958;2023-04-06T11:20:48;18.38;;;12.82;;
22334;SDS011;11335;43.848;25.958;2023-04-06T11:23:34;21.80;;;14.07;;
22334;SDS011;11335;43.848;25.958;2023-04-06T11:26:19;23.27;;;14.65;;
22334;SDS011;11335;43.848;25.958;2023-04-06T11:29:05;17.77;;;11.93;;
22334;SDS011;11335;43.848;25.958;2023-04-06T11:31:52;17.65;;;12.57;;
22334;SDS011;11335;43.848;25.958;2023-04-06T11:34:39;18.25;;;12.10;;
22334;SDS011;11335;43.848;25.958;2023-04-06T11:37:26;18.17;;;12.73;;
22334;SDS011;11335;43.848;25.958;2023-04-06T11:40:11;16.40;;;11.93;;
22334;SDS011;11335;43.848;25.958;2023-04-06T11:42:57;19.08;;;12.18;;
22334;SDS011;11335;43.848;25.958;2023-04-06T11:45:43;17.10;;;11.38;;
22334;SDS011;11335;43.848;25.958;2023-04-06T11:48:29;17.60;;;12.02;;
22334;SDS011;11335;43.848;25.958;2023-04-06T11:51:21;17.58;;;11.05;;
22334;SDS011;11335;43.848;25.958;2023-04-06T11:54:13;19.75;;;11.05;;
22334;SDS011;11335;43.848;25.958;2023-04-06T11:56:59;16.10;;;10.93;;
22334;SDS011;11335;43.848;25.958;2023-04-06T11:59:45;18.42;;;11.02;;
22334;SDS011;11335;43.848;25.958;2023-04-06T12:02:31;14.90;;;10.85;;
22334;SDS011;11335;43.848;25.958;2023-04-06T12:05:17;14.43;;;11.05;;
22334;SDS011;11335;43.848;25.958;2023-04-06T12:08:03;15.23;;;10.80;;
22334;SDS011;11335;43.848;25.958;2023-04-06T12:10:48;17.60;;;11.38;;
22334;SDS011;11335;43.848;25.958;2023-04-06T12:13:34;15.10;;;10.82;;
22334;SDS011;11335;43.848;25.958;2023-04-06T12:16:20;13.55;;;10.15;;
22334;SDS011;11335;43.848;25.958;2023-04-06T12:19:06;15.10;;;11.07;;
22334;SDS011;11335;43.848;25.958;2023-04-06T12:21:52;15.02;;;10.77;;
22334;SDS011;11335;43.848;25.958;2023-04-06T12:24:38;18.88;;;10.65;;
22334;SDS011;11335;43.848;25.958;2023-04-06T12:27:24;16.63;;;11.10;;
22334;SDS011;11335;43.848;25.958;2023-04-06T12:30:10;17.38;;;11.18;;
22334;SDS011;11335;43.848;25.958;2023-04-06T12:32:56;18.13;;;10.82;;
22334;SDS011;11335;43.848;25.958;2023-04-06T12:35:41;17.80;;;10.35;;
22334;SDS011;11335;43.848;25.958;2023-04-06T12:38:27;16.20;;;10.98;;
22334;SDS011;11335;43.848;25.958;2023-04-06T12:41:15;20.33;;;11.07;;
22334;SDS011;11335;43.848;25.958;2023-04-06T12:44:04;16.40;;;11.32;;
22334;SDS011;11335;43.848;25.958;2023-04-06T12:46:55;15.73;;;11.27;;
22334;SDS011;11335;43.848;25.958;2023-04-06T12:49:42;16.50;;;10.85;;
22334;SDS011;11335;43.848;25.958;2023-04-06T12:52:28;19.33;;;10.30;;
22334;SDS011;11335;43.848;25.958;2023-04-06T12:55:16;13.77;;;9.38;;
22334;SDS011;11335;43.848;25.958;2023-04-06T12:58:02;14.38;;;9.93;;
22334;SDS011;11335;43.848;25.958;2023-04-06T13:00:48;21.27;;;10.18;;
22334;SDS011;11335;43.848;25.958;2023-04-06T13:03:34;14.35;;;10.13;;
22334;SDS011;11335;43.848;25.958;2023-04-06T13:06:20;14.77;;;9.75;;
22334;SDS011;11335;43.848;25.958;2023-04-06T13:09:06;14.68;;;9.45;;
22334;SDS011;11335;43.848;25.958;2023-04-06T13:11:53;15.20;;;9.65;;
22334;SDS011;11335;43.848;25.958;2023-04-06T13:14:38;11.90;;;9.55;;
22334;SDS011;11335;43.848;25.958;2023-04-06T13:17:26;14.93;;;9.30;;
22334;SDS011;11335;43.848;25.958;2023-04-06T13:20:12;12.85;;;8.73;;
22334;SDS011;11335;43.848;25.958;2023-04-06T13:22:57;12.77;;;8.52;;
22334;SDS011;11335;43.848;25.958;2023-04-06T13:25:43;15.10;;;8.10;;
22334;SDS011;11335;43.848;25.958;2023-04-06T13:28:29;12.57;;;8.30;;
22334;SDS011;11335;43.848;25.958;2023-04-06T13:31:15;14.60;;;8.40;;
22334;SDS011;11335;43.848;25.958;2023-04-06T13:34:01;12.77;;;8.77;;
22334;SDS011;11335;43.848;25.958;2023-04-06T13:36:47;16.05;;;8.80;;
22334;SDS011;11335;43.848;25.958;2023-04-06T13:39:32;10.65;;;8.40;;
22334;SDS011;11335;43.848;25.958;2023-04-06T13:42:18;14.30;;;7.85;;
22334;SDS011;11335;43.848;25.958;2023-04-06T13:45:04;12.07;;;7.70;;
22334;SDS011;11335;43.848;25.958;2023-04-06T13:47:50;10.02;;;7.70;;
22334;SDS011;11335;43.848;25.958;2023-04-06T13:50:36;12.30;;;7.90;;
22334;SDS011;11335;43.848;25.958;2023-04-06T13:53:21;12.80;;;7.32;;
22334;SDS011;11335;43.848;25.958;2023-04-06T13:56:07;11.70;;;7.28;;
22334;SDS011;11335;43.848;25.958;2023-04-06T13:58:54;14.35;;;7.55;;
22334;SDS011;11335;43.848;25.958;2023-04-06T14:01:40;10.80;;;6.82;;
22334;SDS011;11335;43.848;25.958;2023-04-06T14:04:26;12.70;;;6.85;;
22334;SDS011;11335;43.848;25.958;2023-04-06T14:07:12;10.35;;;6.45;;
22334;SDS011;11335;43.848;25.958;2023-04-06T14:09:57;10.07;;;6.35;;
22334;SDS011;11335;43.848;25.958;2023-04-06T14:12:43;10.13;;;7.28;;
22334;SDS011;11335;43.848;25.958;2023-04-06T14:15:32;12.77;;;7.53;;
22334;SDS011;11335;43.848;25.958;2023-04-06T14:18:17;9.85;;;6.95;;
22334;SDS011;11335;43.848;25.958;2023-04-06T14:21:03;10.30;;;7.00;;
22334;SDS011;11335;43.848;25.958;2023-04-06T14:23:48;12.63;;;7.10;;
22334;SDS011;11335;43.848;25.958;2023-04-06T14:26:35;13.82;;;6.88;;
22334;SDS011;11335;43.848;25.958;2023-04-06T14:29:21;10.95;;;6.55;;
22334;SDS011;11335;43.848;25.958;2023-04-06T14:32:06;13.93;;;7.20;;
22334;SDS011;11335;43.848;25.958;2023-04-06T14:34:52;13.07;;;6.95;;
22334;SDS011;11335;43.848;25.958;2023-04-06T14:37:38;11.68;;;7.00;;
22334;SDS011;11335;43.848;25.958;2023-04-06T14:40:24;11.20;;;7.20;;
22334;SDS011;11335;43.848;25.958;2023-04-06T14:43:10;15.60;;;7.22;;
22334;SDS011;11335;43.848;25.958;2023-04-06T14:45:59;11.07;;;7.20;;
22334;SDS011;11335;43.848;25.958;2023-04-06T14:48:45;13.13;;;7.20;;
22334;SDS011;11335;43.848;25.958;2023-04-06T14:51:30;12.93;;;7.05;;
22334;SDS011;11335;43.848;25.958;2023-04-06T14:54:16;12.18;;;7.10;;
22334;SDS011;11335;43.848;25.958;2023-04-06T14:57:02;14.02;;;6.75;;
22334;SDS011;11335;43.848;25.958;2023-04-06T14:59:47;10.25;;;6.22;;
22334;SDS011;11335;43.848;25.958;2023-04-06T15:02:33;9.13;;;6.45;;
22334;SDS011;11335;43.848;25.958;2023-04-06T15:05:18;14.18;;;6.50;;
22334;SDS011;11335;43.848;25.958;2023-04-06T15:08:04;9.95;;;6.70;;
22334;SDS011;11335;43.848;25.958;2023-04-06T15:10:50;10.52;;;6.40;;
22334;SDS011;11335;43.848;25.958;2023-04-06T15:13:36;11.77;;;6.95;;
22334;SDS011;11335;43.848;25.958;2023-04-06T15:16:22;9.43;;;6.03;;
22334;SDS011;11335;43.848;25.958;2023-04-06T15:19:07;10.13;;;6.20;;
22334;SDS011;11335;43.848;25.958;2023-04-06T15:21:54;13.15;;;6.70;;
22334;SDS011;11335;43.848;25.958;2023-04-06T15:24:40;11.05;;;7.13;;
22334;SDS011;11335;43.848;25.958;2023-04-06T15:27:26;9.50;;;6.53;;
22334;SDS011;11335;43.848;25.958;2023-04-06T15:30:11;12.40;;;7.70;;
22334;SDS011;11335;43.848;25.958;2023-04-06T15:32:58;16.80;;;6.63;;
22334;SDS011;11335;43.848;25.958;2023-04-06T15:35:45;10.32;;;7.15;;
22334;SDS011;11335;43.848;25.958;2023-04-06T15:38:31;18.00;;;7.70;;
22334;SDS011;11335;43.848;25.958;2023-04-06T15:41:18;12.18;;;7.43;;
22334;SDS011;11335;43.848;25.958;2023-04-06T15:44:03;17.02;;;7.68;;
22334;SDS011;11335;43.848;25.958;2023-04-06T15:46:49;13.10;;;7.00;;
22334;SDS011;11335;43.848;25.958;2023-04-06T15:49:36;12.10;;;7.18;;
22334;SDS011;11335;43.848;25.958;2023-04-06T15:52:21;11.63;;;6.95;;
22334;SDS011;11335;43.848;25.958;2023-04-06T15:55:08;11.43;;;7.53;;
22334;SDS011;11335;43.848;25.958;2023-04-06T15:57:53;12.30;;;7.45;;
22334;SDS011;11335;43.848;25.958;2023-04-06T16:00:39;9.45;;;6.78;;
22334;SDS011;11335;43.848;25.958;2023-04-06T16:03:25;12.20;;;7.63;;
22334;SDS011;11335;43.848;25.958;2023-04-06T16:06:10;12.32;;;7.38;;
22334;SDS011;11335;43.848;25.958;2023-04-06T16:08:56;14.18;;;6.90;;